Time;durP1;ratioP1;P1;durP2;ratioP2;P2;SDS_P1;SDS_P2;PMS_P1;PMS_P2;Temp;Humidity;BMP_temperature;BMP_pressure;BME280_temperature;BME280_humidity;BME280_pressure;Samples;Min_cycle;Max_cycle;Signal;HPM_P1;HPM_P2
2022/10/26 00:01:28;;;;;;;704.37;656.67;;;11.90;35.00;;;;;;5007884;28;20815;-68
2022/10/26 00:03:55;;;;;;;429.27;400.03;;;11.80;35.40;;;;;;4993938;28;20222;-68
2022/10/26 00:06:29;;;;;;;815.87;762.87;;;11.90;35.90;;;;;;4994385;28;20238;-69
2022/10/26 00:08:56;;;;;;;384.80;356.43;;;11.90;34.80;;;;;;4999556;28;20431;-68
2022/10/26 00:11:22;;;;;;;619.40;576.73;;;11.90;35.90;;;;;;5013358;28;20482;-69
2022/10/26 00:13:48;;;;;;;891.90;831.90;;;12.00;35.30;;;;;;5007775;28;20436;-69
2022/10/26 00:16:18;;;;;;;525.40;490.90;;;11.90;35.40;;;;;;4994374;28;20522;-69
2022/10/26 00:18:44;;;;;;;786.17;734.10;;;11.90;35.60;;;;;;5012474;28;20219;-69
2022/10/26 00:21:10;;;;;;;599.50;559.20;;;11.90;35.40;;;;;;5014358;28;20464;-69
2022/10/26 00:23:36;;;;;;;396.07;369.47;;;11.90;36.30;;;;;;5011507;28;20431;-69
2022/10/26 00:26:02;;;;;;;877.43;819.70;;;11.90;36.30;;;;;;4997180;28;20438;-69
2022/10/26 00:28:28;;;;;;;574.47;534.93;;;11.90;35.50;;;;;;4997026;28;20419;-69
2022/10/26 00:30:54;;;;;;;798.17;744.57;;;11.90;36.20;;;;;;4995403;28;20472;-69
2022/10/26 00:33:19;;;;;;;705.57;657.83;;;12.00;35.00;;;;;;4993258;28;20207;-68
2022/10/26 00:35:52;;;;;;;693.27;645.40;;;12.00;35.40;;;;;;5008001;28;20230;-69
2022/10/26 00:38:18;;;;;;;749.73;700.27;;;12.00;34.80;;;;;;5012693;28;20184;-69
2022/10/26 00:40:43;;;;;;;573.30;534.23;;;12.00;34.80;;;;;;5007225;28;20435;-68
2022/10/26 00:43:16;;;;;;;453.10;425.40;;;11.90;36.20;;;;;;4993484;28;20223;-68
2022/10/26 00:45:43;;;;;;;578.07;541.30;;;12.00;36.20;;;;;;4994051;28;20721;-68
2022/10/26 00:48:22;;;;;;;662.10;617.57;;;12.20;35.50;;;;;;5001655;28;20435;-68
2022/10/26 00:50:47;;;;;;;735.93;688.43;;;12.10;35.50;;;;;;4997877;28;20553;-68
2022/10/26 00:53:14;;;;;;;495.53;462.60;;;12.10;35.80;;;;;;5008879;28;20427;-68
2022/10/26 00:55:47;;;;;;;501.13;466.93;;;12.10;35.60;;;;;;5006520;28;20183;-68
2022/10/26 00:58:13;;;;;;;702.97;654.27;;;12.20;34.90;;;;;;5013227;28;20476;-68
2022/10/26 01:00:40;;;;;;;634.50;592.17;;;12.20;34.20;;;;;;5012802;28;20438;-69
2022/10/26 01:03:07;;;;;;;480.40;447.43;;;12.20;34.70;;;;;;5014447;28;20518;-69
2022/10/26 01:05:36;;;;;;;818.50;766.00;;;12.30;35.10;;;;;;4997300;28;20432;-68
2022/10/26 01:08:02;;;;;;;859.60;802.20;;;12.30;33.70;;;;;;5006488;28;20439;-68
2022/10/26 01:10:28;;;;;;;862.03;804.93;;;12.30;33.90;;;;;;4994111;28;20469;-69
2022/10/26 01:12:57;;;;;;;789.77;738.30;;;12.20;34.30;;;;;;4993936;28;20423;-68
2022/10/26 01:15:36;;;;;;;565.13;527.90;;;12.10;34.80;;;;;;4999778;28;20430;-68
2022/10/26 01:18:16;;;;;;;206.07;189.60;;;12.10;35.70;;;;;;4998558;28;20437;-68
2022/10/26 01:20:49;;;;;;;516.20;482.70;;;12.00;36.20;;;;;;4992911;28;20467;-69
2022/10/26 01:23:28;;;;;;;400.50;375.63;;;12.10;36.30;;;;;;4993648;28;20407;-69
2022/10/26 01:26:43;;;;;;;794.60;740.50;;;12.10;37.00;;;;;;4994313;28;20462;-68
2022/10/26 01:29:27;;;;;;;727.17;678.47;;;12.20;35.70;;;;;;4959843;28;20841;-68
2022/10/26 01:31:58;;;;;;;508.37;473.63;;;12.10;35.90;;;;;;4991527;28;20565;-69
2022/10/26 01:34:32;;;;;;;783.27;731.07;;;12.00;37.00;;;;;;4992328;28;20462;-69
2022/10/26 01:37:08;;;;;;;709.47;661.77;;;12.10;37.90;;;;;;4992514;28;20432;-68
2022/10/26 01:39:43;;;;;;;426.73;397.33;;;12.10;37.80;;;;;;4992805;28;20458;-68
2022/10/26 01:42:11;;;;;;;495.27;461.63;;;12.20;37.30;;;;;;5000436;28;20519;-68
2022/10/26 01:44:41;;;;;;;278.00;258.37;;;12.20;37.00;;;;;;5012058;28;20438;-69
2022/10/26 01:47:11;;;;;;;667.93;622.63;;;12.20;38.10;;;;;;4993120;28;20459;-68
2022/10/26 01:49:45;;;;;;;591.97;551.17;;;12.20;37.50;;;;;;4996867;28;20518;-68
2022/10/26 01:52:11;;;;;;;713.47;666.83;;;12.20;38.10;;;;;;4996116;28;20946;-68
2022/10/26 01:54:37;;;;;;;688.63;642.50;;;12.20;38.10;;;;;;5000057;28;20517;-68
2022/10/26 01:57:05;;;;;;;580.73;542.13;;;12.20;38.20;;;;;;5015922;28;20188;-69
2022/10/26 02:00:00;;;;;;;577.33;539.87;;;12.20;38.10;;;;;;5008228;28;20192;-68
2022/10/26 02:02:31;;;;;;;488.10;455.13;;;12.10;38.00;;;;;;4995722;28;20547;-68
2022/10/26 02:05:24;;;;;;;583.67;544.03;;;12.20;38.20;;;;;;5002619;28;20898;-68
2022/10/26 02:08:19;;;;;;;648.80;604.67;;;12.20;38.10;;;;;;5012335;28;20795;-69
2022/10/26 02:10:53;;;;;;;229.70;212.53;;;12.10;38.40;;;;;;5015532;28;20511;-69
2022/10/26 02:13:25;;;;;;;579.57;543.43;;;12.20;38.50;;;;;;5015159;28;20434;-68
2022/10/26 02:16:07;;;;;;;397.50;369.90;;;12.20;38.20;;;;;;5002885;28;20507;-68
2022/10/26 02:18:35;;;;;;;877.47;816.90;;;12.20;38.20;;;;;;4997793;28;20417;-69
2022/10/26 02:21:23;;;;;;;283.47;263.77;;;12.20;38.10;;;;;;4999792;28;20541;-68
2022/10/26 02:23:51;;;;;;;351.13;331.93;;;12.20;39.10;;;;;;5014017;28;20434;-68
2022/10/26 02:26:21;;;;;;;425.40;396.77;;;12.20;38.40;;;;;;4995315;28;20925;-68
2022/10/26 02:28:50;;;;;;;635.83;596.03;;;12.30;38.30;;;;;;4995834;28;20431;-69
2022/10/26 02:31:17;;;;;;;810.90;756.00;;;12.30;38.20;;;;;;4995145;28;20552;-69
2022/10/26 02:33:49;;;;;;;373.90;348.37;;;12.30;38.20;;;;;;4996388;28;20414;-68
2022/10/26 02:36:20;;;;;;;821.47;766.60;;;12.30;38.80;;;;;;5010621;28;20437;-68
2022/10/26 02:38:47;;;;;;;854.57;796.37;;;12.30;38.20;;;;;;5009469;28;20917;-68
2022/10/26 02:41:14;;;;;;;459.67;427.23;;;12.30;38.20;;;;;;4996995;28;20468;-68
2022/10/26 02:43:47;;;;;;;458.80;428.53;;;12.40;38.30;;;;;;4995789;28;20763;-68
2022/10/26 02:46:16;;;;;;;857.70;800.70;;;12.30;38.20;;;;;;5010681;28;20546;-68
2022/10/26 02:48:42;;;;;;;568.67;530.50;;;12.30;38.20;;;;;;4996992;28;20446;-68
2022/10/26 02:51:33;;;;;;;612.20;570.93;;;12.30;39.50;;;;;;4995741;28;20474;-68
2022/10/26 02:54:35;;;;;;;330.87;309.97;;;12.30;39.10;;;;;;5013250;28;20188;-68
2022/10/26 02:57:09;;;;;;;424.83;399.07;;;12.30;39.00;;;;;;4995603;28;20472;-68
2022/10/26 02:59:37;;;;;;;719.47;670.23;;;12.20;38.10;;;;;;4994971;28;20799;-68
2022/10/26 03:02:04;;;;;;;473.73;440.00;;;12.20;38.00;;;;;;4999064;28;20545;-68
2022/10/26 03:04:31;;;;;;;735.77;686.27;;;12.30;38.30;;;;;;5009567;28;20439;-68
2022/10/26 03:06:57;;;;;;;410.50;380.53;;;12.30;37.80;;;;;;5015389;28;20509;-68
2022/10/26 03:09:23;;;;;;;690.00;643.17;;;12.20;38.10;;;;;;5008328;28;20855;-68
2022/10/26 03:11:48;;;;;;;768.33;717.17;;;12.20;38.10;;;;;;4994514;28;20213;-68
2022/10/26 03:14:14;;;;;;;700.03;652.87;;;12.20;38.10;;;;;;4997738;28;20457;-68
2022/10/26 03:16:40;;;;;;;768.00;716.70;;;12.10;38.50;;;;;;4997551;28;20190;-68
2022/10/26 03:19:05;;;;;;;829.47;774.50;;;12.10;39.40;;;;;;4995287;28;20547;-68
2022/10/26 03:21:31;;;;;;;503.57;475.37;;;12.10;39.30;;;;;;5006050;28;20218;-68
2022/10/26 03:23:56;;;;;;;372.83;346.53;;;12.10;39.60;;;;;;5012373;28;20201;-68
2022/10/26 03:26:22;;;;;;;790.10;737.73;;;12.20;40.00;;;;;;4998699;28;20268;-69
2022/10/26 03:28:47;;;;;;;485.63;450.77;;;12.20;39.10;;;;;;4994394;28;20261;-68
2022/10/26 03:31:13;;;;;;;509.53;475.63;;;12.20;39.20;;;;;;4993996;28;20212;-68
2022/10/26 03:33:38;;;;;;;393.37;366.23;;;12.40;38.30;;;;;;4994384;28;20173;-68
2022/10/26 03:36:04;;;;;;;403.10;375.80;;;12.40;37.30;;;;;;5006717;28;20650;-68
2022/10/26 03:38:30;;;;;;;532.40;495.73;;;12.40;37.60;;;;;;5014410;28;20168;-68
2022/10/26 03:40:55;;;;;;;563.90;524.27;;;12.40;36.80;;;;;;5013850;28;20204;-69
2022/10/26 03:43:21;;;;;;;379.60;352.70;;;12.50;37.00;;;;;;5012249;28;20725;-68
2022/10/26 03:45:46;;;;;;;583.90;542.90;;;12.50;37.40;;;;;;5004174;28;20661;-69
2022/10/26 03:48:13;;;;;;;712.27;665.37;;;12.50;36.30;;;;;;5003941;28;20668;-68
2022/10/26 03:50:38;;;;;;;846.23;787.07;;;12.50;36.30;;;;;;4997249;28;20577;-69
2022/10/26 03:53:04;;;;;;;478.80;444.33;;;12.40;36.80;;;;;;4997986;28;20411;-69
2022/10/26 03:55:29;;;;;;;633.60;593.23;;;12.40;38.10;;;;;;5014299;28;20212;-68
2022/10/26 03:57:55;;;;;;;863.03;803.90;;;12.40;38.30;;;;;;5013890;28;20180;-69
2022/10/26 04:00:21;;;;;;;830.03;775.47;;;12.50;37.80;;;;;;5013429;28;20213;-69
2022/10/26 04:02:53;;;;;;;701.40;654.90;;;12.50;38.30;;;;;;5012384;28;20195;-68
2022/10/26 04:05:19;;;;;;;455.00;423.70;;;12.50;38.40;;;;;;5012943;28;20219;-69
2022/10/26 04:08:03;;;;;;;743.40;693.67;;;12.50;38.40;;;;;;4994317;28;20475;-69
2022/10/26 04:10:29;;;;;;;402.13;372.53;;;12.50;38.40;;;;;;4992560;28;20287;-69
2022/10/26 04:12:56;;;;;;;541.43;503.63;;;12.50;39.50;;;;;;4993470;28;20491;-68
2022/10/26 04:15:22;;;;;;;458.73;430.07;;;12.50;39.70;;;;;;4999418;28;20187;-68
2022/10/26 04:17:47;;;;;;;453.50;422.50;;;12.60;38.50;;;;;;5011687;28;20484;-69
2022/10/26 04:20:13;;;;;;;859.33;800.63;;;12.50;39.70;;;;;;5013313;28;20434;-69
2022/10/26 04:22:39;;;;;;;546.50;507.83;;;12.40;39.50;;;;;;5012779;28;20196;-68
2022/10/26 04:25:06;;;;;;;492.17;458.93;;;12.40;39.50;;;;;;5008582;28;20231;-68
2022/10/26 04:27:32;;;;;;;481.97;451.43;;;12.40;38.60;;;;;;4993266;28;20191;-69
2022/10/26 04:29:58;;;;;;;615.13;573.20;;;12.40;39.20;;;;;;4994547;28;20438;-69
2022/10/26 04:32:23;;;;;;;465.77;439.20;;;12.50;38.50;;;;;;4992917;28;20466;-69
2022/10/26 04:34:49;;;;;;;672.07;629.27;;;12.50;38.90;;;;;;4995078;28;20176;-69
2022/10/26 04:37:14;;;;;;;771.87;717.43;;;12.50;39.10;;;;;;5011476;28;20180;-69
2022/10/26 04:39:40;;;;;;;879.43;819.40;;;12.50;39.70;;;;;;5013442;28;20211;-68
2022/10/26 04:42:05;;;;;;;692.27;645.30;;;12.40;39.90;;;;;;5012135;28;20601;-69
2022/10/26 04:44:31;;;;;;;675.20;630.90;;;12.40;40.10;;;;;;5013585;28;20563;-69
2022/10/26 04:46:57;;;;;;;618.37;576.67;;;12.40;40.60;;;;;;4995422;28;20564;-69
2022/10/26 04:49:22;;;;;;;367.80;342.97;;;12.50;41.00;;;;;;4993198;28;20279;-69
2022/10/26 04:51:48;;;;;;;681.47;636.03;;;12.60;40.00;;;;;;4993379;28;20251;-68
2022/10/26 04:54:13;;;;;;;724.90;675.23;;;12.60;40.20;;;;;;4994140;28;20180;-68
2022/10/26 04:56:39;;;;;;;404.77;375.30;;;12.60;39.60;;;;;;5007833;28;20273;-68
2022/10/26 04:59:05;;;;;;;601.73;560.60;;;12.60;40.50;;;;;;5004208;28;20308;-69
2022/10/26 05:01:31;;;;;;;372.53;346.73;;;12.60;40.20;;;;;;5012339;28;20696;-68
2022/10/26 05:03:56;;;;;;;562.53;525.80;;;12.70;40.30;;;;;;5008850;28;20192;-69
2022/10/26 05:06:22;;;;;;;631.97;588.87;;;12.70;40.20;;;;;;4994093;28;20431;-69
2022/10/26 05:08:47;;;;;;;558.40;522.37;;;12.70;39.30;;;;;;5003062;28;20266;-69
2022/10/26 05:11:13;;;;;;;429.60;404.53;;;12.70;39.50;;;;;;4994289;28;20637;-68
2022/10/26 05:13:40;;;;;;;394.67;368.10;;;12.70;39.20;;;;;;4994437;28;20184;-68
2022/10/26 05:16:06;;;;;;;620.37;578.87;;;12.80;39.40;;;;;;4992998;28;20631;-69
2022/10/26 05:18:31;;;;;;;798.80;745.90;;;12.90;37.80;;;;;;4999276;28;20430;-69
2022/10/26 05:20:57;;;;;;;698.10;649.70;;;13.00;37.20;;;;;;5011986;28;20449;-68
2022/10/26 05:23:22;;;;;;;656.77;611.90;;;13.10;36.60;;;;;;5012121;28;20191;-69
2022/10/26 05:25:48;;;;;;;593.33;551.77;;;13.10;36.20;;;;;;5011961;28;20188;-69
2022/10/26 05:28:15;;;;;;;712.23;663.87;;;13.20;35.30;;;;;;5010439;28;20192;-69
2022/10/26 05:30:42;;;;;;;630.97;587.73;;;13.30;34.40;;;;;;5012573;28;21039;-69
2022/10/26 05:33:10;;;;;;;388.60;362.90;;;13.40;33.90;;;;;;5012136;28;20774;-67
2022/10/26 05:35:36;;;;;;;450.23;417.53;;;13.50;34.00;;;;;;5010635;28;20430;-68
2022/10/26 05:38:17;;;;;;;572.83;533.73;;;13.50;33.80;;;;;;5012558;28;20449;-68
2022/10/26 05:40:50;;;;;;;422.63;392.20;;;13.60;32.70;;;;;;5012660;28;20426;-68
2022/10/26 05:43:17;;;;;;;688.90;641.50;;;13.70;32.50;;;;;;5012609;28;20415;-67
2022/10/26 05:45:42;;;;;;;714.77;669.30;;;13.70;31.80;;;;;;5005206;28;20553;-67
2022/10/26 05:48:08;;;;;;;699.90;649.00;;;13.70;31.70;;;;;;5000259;28;20506;-68
2022/10/26 05:50:34;;;;;;;482.43;449.20;;;13.80;31.40;;;;;;4992623;28;20258;-67
2022/10/26 05:52:59;;;;;;;755.10;705.83;;;13.90;30.70;;;;;;5007932;28;20565;-68
2022/10/26 05:55:25;;;;;;;600.90;560.77;;;14.00;30.10;;;;;;5010869;28;20427;-68
2022/10/26 05:57:51;;;;;;;622.47;580.03;;;14.00;29.90;;;;;;4995785;28;20264;-68
2022/10/26 06:00:23;;;;;;;644.00;600.27;;;14.10;29.50;;;;;;4993235;28;20418;-68
2022/10/26 06:03:15;;;;;;;641.07;598.10;;;14.20;29.60;;;;;;4992440;28;20232;-68
2022/10/26 06:05:57;;;;;;;592.33;551.97;;;14.30;28.70;;;;;;5012105;28;20426;-68
2022/10/26 06:08:25;;;;;;;749.10;699.13;;;14.40;28.30;;;;;;4995217;28;20433;-68
2022/10/26 06:10:52;;;;;;;531.73;495.20;;;14.50;27.60;;;;;;4992176;28;20467;-67
2022/10/26 06:13:18;;;;;;;315.40;292.43;;;14.60;27.60;;;;;;4992507;28;20494;-69
2022/10/26 06:15:54;;;;;;;641.23;596.83;;;14.70;27.30;;;;;;4993138;28;20412;-69
2022/10/26 06:18:19;;;;;;;680.10;632.73;;;14.70;26.70;;;;;;5007082;28;20430;-68
2022/10/26 06:21:19;;;;;;;573.97;533.77;;;14.80;26.50;;;;;;5011643;28;20530;-68
2022/10/26 06:24:09;;;;;;;783.53;726.73;;;14.90;26.30;;;;;;5012323;28;20709;-68
2022/10/26 06:26:45;;;;;;;847.47;788.23;;;14.90;26.00;;;;;;5009997;28;20419;-68
2022/10/26 06:29:42;;;;;;;712.83;663.27;;;14.90;25.90;;;;;;4992200;28;20415;-69
2022/10/26 06:32:09;;;;;;;790.33;734.53;;;14.90;26.50;;;;;;4992203;28;20547;-68
2022/10/26 06:34:38;;;;;;;414.43;384.80;;;14.90;26.50;;;;;;4995256;28;20426;-68
2022/10/26 06:37:04;;;;;;;340.63;314.83;;;15.00;26.60;;;;;;5001157;28;20423;-68
2022/10/26 06:39:34;;;;;;;231.20;212.23;;;15.10;26.10;;;;;;5015418;28;20505;-68
2022/10/26 06:42:00;;;;;;;311.30;288.93;;;15.00;26.00;;;;;;4997933;28;20212;-68
2022/10/26 06:44:26;;;;;;;557.80;518.43;;;14.70;26.70;;;;;;4996302;28;20921;-68
2022/10/26 06:47:17;;;;;;;792.40;737.97;;;14.60;26.70;;;;;;5004002;28;20435;-67
2022/10/26 06:49:57;;;;;;;228.77;211.03;;;14.60;27.20;;;;;;5015589;28;20421;-67
2022/10/26 06:52:36;;;;;;;701.30;653.97;;;14.50;27.50;;;;;;5012754;28;20488;-69
2022/10/26 06:55:03;;;;;;;306.53;284.13;;;14.50;27.40;;;;;;5012375;28;20434;-68
2022/10/26 06:57:36;;;;;;;624.90;581.47;;;14.20;28.70;;;;;;4997726;28;20463;-67
2022/10/26 07:00:14;;;;;;;858.07;800.23;;;14.10;28.90;;;;;;5011013;28;20839;-66
2022/10/26 07:02:39;;;;;;;819.50;767.53;;;14.20;29.60;;;;;;4992852;28;20474;-67
2022/10/26 07:05:09;;;;;;;223.03;205.47;;;14.10;29.60;;;;;;4991447;28;20492;-70
2022/10/26 07:07:38;;;;;;;721.53;673.27;;;14.30;29.40;;;;;;4995034;28;20555;-67
2022/10/26 07:10:05;;;;;;;514.13;478.07;;;14.40;28.70;;;;;;4991809;28;20788;-67
2022/10/26 07:12:31;;;;;;;312.57;288.07;;;14.50;28.70;;;;;;5002905;28;20995;-68
2022/10/26 07:14:57;;;;;;;507.77;471.63;;;14.60;28.10;;;;;;5011346;28;20426;-69
2022/10/26 07:17:23;;;;;;;800.67;749.70;;;14.60;28.30;;;;;;4994850;28;20251;-68
2022/10/26 07:19:48;;;;;;;617.57;572.90;;;14.60;28.20;;;;;;4990841;28;20196;-68
2022/10/26 07:22:14;;;;;;;345.47;308.90;;;14.60;28.40;;;;;;4992142;28;20528;-68
2022/10/26 07:24:39;;;;;;;390.60;362.10;;;14.80;27.90;;;;;;5006428;28;20227;-68
2022/10/26 07:27:05;;;;;;;184.43;170.83;;;14.90;27.70;;;;;;5010264;28;20192;-69
2022/10/26 07:29:30;;;;;;;562.13;525.70;;;14.80;28.00;;;;;;5010949;28;20198;-68
2022/10/26 07:31:56;;;;;;;681.97;635.87;;;14.70;27.60;;;;;;5009813;28;20218;-68
2022/10/26 07:34:22;;;;;;;402.70;372.57;;;14.80;27.70;;;;;;5008249;28;20210;-69
2022/10/26 07:36:47;;;;;;;562.73;524.53;;;14.80;27.90;;;;;;5004750;28;20207;-68
2022/10/26 07:39:13;;;;;;;285.27;265.37;;;14.80;27.50;;;;;;4990046;28;20275;-68
2022/10/26 07:41:38;;;;;;;669.63;625.53;;;14.70;28.10;;;;;;4987903;28;20201;-68
2022/10/26 07:44:04;;;;;;;733.43;685.00;;;14.70;27.80;;;;;;4989693;28;20224;-68
2022/10/26 07:46:29;;;;;;;558.03;517.67;;;14.60;27.90;;;;;;4988037;28;20212;-68
2022/10/26 07:48:55;;;;;;;694.00;647.03;;;14.80;28.10;;;;;;4989737;28;20192;-69
2022/10/26 07:51:21;;;;;;;725.03;676.87;;;14.90;27.40;;;;;;4987241;28;20327;-69
2022/10/26 07:53:46;;;;;;;717.53;668.23;;;14.90;27.70;;;;;;4988645;28;20173;-69
2022/10/26 07:56:12;;;;;;;842.60;784.63;;;15.10;27.70;;;;;;4991429;28;20180;-69
2022/10/26 07:58:38;;;;;;;592.47;550.53;;;15.20;26.40;;;;;;4990561;28;20191;-69
2022/10/26 08:01:09;;;;;;;527.67;490.17;;;15.20;26.20;;;;;;4998456;28;20219;-69
2022/10/26 08:03:34;;;;;;;865.70;805.03;;;15.30;26.50;;;;;;5002707;28;20231;-69
2022/10/26 08:06:01;;;;;;;528.07;490.47;;;15.40;26.30;;;;;;4998330;28;20477;-69
2022/10/26 08:08:27;;;;;;;825.47;768.87;;;15.60;26.40;;;;;;4990398;28;20371;-69
2022/10/26 08:10:52;;;;;;;809.57;754.23;;;15.70;25.20;;;;;;4990729;28;20471;-68
2022/10/26 08:13:18;;;;;;;760.50;706.23;;;15.60;25.00;;;;;;4990826;28;20180;-69
2022/10/26 08:15:43;;;;;;;840.57;780.30;;;15.80;25.80;;;;;;4990718;28;20180;-68
2022/10/26 08:18:09;;;;;;;466.57;432.40;;;15.90;25.70;;;;;;4991346;28;20184;-69
2022/10/26 08:20:35;;;;;;;746.77;694.77;;;16.10;24.60;;;;;;4990167;28;20815;-69
2022/10/26 08:23:00;;;;;;;905.27;841.23;;;16.30;23.80;;;;;;4990271;28;20188;-69
2022/10/26 08:25:26;;;;;;;836.37;778.93;;;16.30;23.40;;;;;;4990931;28;20184;-68
2022/10/26 08:27:53;;;;;;;893.60;832.13;;;16.30;23.80;;;;;;4990257;28;20197;-68
2022/10/26 08:30:19;;;;;;;744.13;690.73;;;16.40;24.40;;;;;;4989266;28;20427;-67
2022/10/26 08:32:44;;;;;;;801.57;742.53;;;16.40;23.20;;;;;;4990156;28;20531;-67
2022/10/26 08:35:10;;;;;;;845.10;782.60;;;16.50;22.80;;;;;;4989890;28;20570;-67
2022/10/26 08:37:36;;;;;;;873.73;810.93;;;16.60;22.90;;;;;;4990382;28;20192;-66
2022/10/26 08:40:03;;;;;;;859.17;797.43;;;16.60;21.80;;;;;;4990703;28;20185;-66
2022/10/26 08:42:34;;;;;;;916.50;851.20;;;16.70;22.50;;;;;;4989773;28;20211;-66
2022/10/26 08:45:14;;;;;;;822.73;762.37;;;16.80;23.00;;;;;;4989649;28;20430;-66
2022/10/26 08:47:46;;;;;;;684.50;631.97;;;16.90;23.10;;;;;;5005429;28;20492;-67
2022/10/26 08:50:33;;;;;;;903.77;839.03;;;17.00;21.60;;;;;;5014211;28;20426;-66
2022/10/26 08:53:03;;;;;;;743.60;687.33;;;17.30;21.90;;;;;;5012682;28;20866;-66
2022/10/26 08:55:40;;;;;;;921.00;854.23;;;17.40;21.00;;;;;;5013328;28;20779;-66
2022/10/26 08:58:15;;;;;;;684.10;632.87;;;17.60;20.80;;;;;;5013432;28;20893;-66
2022/10/26 09:00:40;;;;;;;664.87;616.83;;;17.90;20.60;;;;;;5013544;28;20441;-66
2022/10/26 09:03:14;;;;;;;903.70;833.07;;;18.00;19.60;;;;;;5013253;28;20411;-67
2022/10/26 09:06:04;;;;;;;816.67;753.53;;;18.10;19.60;;;;;;5014825;28;20259;-67
2022/10/26 09:08:52;;;;;;;901.60;834.00;;;17.90;18.90;;;;;;5012652;28;20418;-66
2022/10/26 09:11:27;;;;;;;939.83;869.93;;;17.70;19.00;;;;;;5012984;28;20459;-66
2022/10/26 09:14:03;;;;;;;922.77;853.77;;;17.70;19.80;;;;;;5013558;28;20402;-66
2022/10/26 09:16:38;;;;;;;670.10;619.53;;;17.90;20.00;;;;;;5013074;28;20436;-67
2022/10/26 09:19:28;;;;;;;788.97;731.07;;;17.90;19.20;;;;;;5013307;28;20417;-66
2022/10/26 09:22:23;;;;;;;978.20;906.70;;;18.00;19.60;;;;;;5011978;28;20426;-66
2022/10/26 09:24:55;;;;;;;964.23;893.63;;;18.10;18.50;;;;;;5014211;28;20418;-66
2022/10/26 09:27:31;;;;;;;940.80;869.67;;;18.30;18.10;;;;;;5012777;28;20422;-66
2022/10/26 09:30:02;;;;;;;619.93;572.50;;;18.40;17.60;;;;;;5013167;28;20414;-66
2022/10/26 09:32:35;;;;;;;963.53;892.03;;;18.30;18.90;;;;;;5012245;28;20855;-66
2022/10/26 09:35:08;;;;;;;882.20;816.97;;;18.30;18.80;;;;;;5012325;28;20419;-66
2022/10/26 09:37:39;;;;;;;796.30;736.90;;;18.40;18.30;;;;;;5013918;28;20413;-66
2022/10/26 09:40:12;;;;;;;576.93;533.70;;;18.30;17.80;;;;;;5012364;28;20423;-67
2022/10/26 09:43:00;;;;;;;926.37;855.40;;;18.40;18.50;;;;;;5011982;28;20466;-67
2022/10/26 09:45:32;;;;;;;952.83;881.07;;;18.40;18.70;;;;;;5012895;28;20411;-66
2022/10/26 09:48:17;;;;;;;792.30;734.20;;;18.30;18.20;;;;;;5011897;28;20970;-66
2022/10/26 09:50:47;;;;;;;955.27;885.97;;;18.30;18.70;;;;;;5011451;28;20468;-67
2022/10/26 09:53:12;;;;;;;989.77;918.30;;;18.40;18.50;;;;;;5011998;28;20415;-70
2022/10/26 09:55:42;;;;;;;597.07;551.70;;;18.50;17.60;;;;;;5000135;28;20431;-68
2022/10/26 09:58:19;;;;;;;888.27;821.60;;;18.70;17.80;;;;;;4991844;28;20266;-68
2022/10/26 10:00:45;;;;;;;332.90;307.33;;;18.80;17.10;;;;;;4992948;28;20782;-68
2022/10/26 10:03:28;;;;;;;513.57;474.43;;;19.00;17.00;;;;;;4993135;28;20470;-68
2022/10/26 10:06:21;;;;;;;891.87;821.03;;;19.20;16.00;;;;;;4993435;28;20438;-69
2022/10/26 10:09:09;;;;;;;713.43;657.00;;;19.20;16.50;;;;;;4994302;28;20427;-68
2022/10/26 10:11:54;;;;;;;847.80;776.63;;;19.30;16.50;;;;;;5007320;28;20474;-69
2022/10/26 10:14:26;;;;;;;521.80;483.80;;;19.20;16.00;;;;;;5011912;28;20456;-69
2022/10/26 10:16:58;;;;;;;368.33;342.00;;;19.10;17.00;;;;;;5012459;28;20789;-69
2022/10/26 10:19:28;;;;;;;777.23;716.67;;;19.20;16.60;;;;;;5012726;28;20423;-69
2022/10/26 10:21:57;;;;;;;847.63;781.33;;;19.10;15.90;;;;;;5012564;28;20435;-68
2022/10/26 10:24:34;;;;;;;689.50;629.17;;;19.20;16.30;;;;;;5012210;28;20825;-69
2022/10/26 10:27:23;;;;;;;1014.60;919.00;;;19.20;16.00;;;;;;5011739;28;20454;-70
2022/10/26 10:29:56;;;;;;;1045.70;950.93;;;19.30;16.10;;;;;;5012054;28;20975;-69
2022/10/26 10:32:29;;;;;;;635.23;587.40;;;19.20;16.00;;;;;;5011919;28;20493;-69
2022/10/26 10:34:56;;;;;;;718.10;656.30;;;19.20;16.00;;;;;;5012218;28;20426;-69
2022/10/26 10:37:44;;;;;;;899.33;820.77;;;19.20;16.60;;;;;;5011326;28;20422;-69
2022/10/26 10:40:20;;;;;;;903.60;826.37;;;19.20;16.00;;;;;;5011999;28;20877;-69
2022/10/26 10:42:49;;;;;;;1016.20;923.87;;;19.20;15.80;;;;;;5011395;28;20438;-69
2022/10/26 10:45:21;;;;;;;467.70;433.60;;;19.30;16.10;;;;;;5011731;28;20851;-70
2022/10/26 10:48:11;;;;;;;785.80;720.60;;;19.30;15.20;;;;;;5011530;28;20419;-70
2022/10/26 10:50:49;;;;;;;780.83;721.87;;;19.40;14.90;;;;;;5011927;28;20994;-67
2022/10/26 10:53:19;;;;;;;730.17;675.03;;;19.40;14.90;;;;;;5012415;28;20422;-67
2022/10/26 10:56:06;;;;;;;841.53;765.53;;;19.70;14.80;;;;;;5014480;28;20427;-67
2022/10/26 10:59:01;;;;;;;653.60;594.73;;;20.00;13.50;;;;;;5015503;28;20405;-67
2022/10/26 11:01:32;;;;;;;574.57;532.10;;;20.40;13.60;;;;;;5015172;28;20433;-68
2022/10/26 11:04:27;;;;;;;815.53;755.97;;;20.60;12.50;;;;;;5015038;28;20442;-70
2022/10/26 11:06:58;;;;;;;691.27;637.27;;;20.70;12.80;;;;;;5015253;28;20415;-69
2022/10/26 11:09:29;;;;;;;974.27;884.60;;;20.80;11.90;;;;;;5014971;28;20775;-68
2022/10/26 11:12:14;;;;;;;845.70;767.77;;;21.00;12.20;;;;;;5014696;28;20838;-70
2022/10/26 11:14:47;;;;;;;551.77;510.83;;;21.30;12.20;;;;;;5014778;28;20425;-69
2022/10/26 11:17:24;;;;;;;927.97;857.63;;;21.70;11.60;;;;;;5014130;28;20461;-70
2022/10/26 11:20:10;;;;;;;874.87;802.20;;;21.80;10.60;;;;;;5015940;28;20485;-69
2022/10/26 11:22:41;;;;;;;684.77;631.83;;;21.50;10.10;;;;;;5013582;28;20788;-69
2022/10/26 11:25:18;;;;;;;731.80;679.63;;;21.30;11.00;;;;;;5014706;28;20767;-69
2022/10/26 11:27:58;;;;;;;795.03;729.90;;;21.10;11.70;;;;;;5014772;28;20908;-69
2022/10/26 11:30:24;;;;;;;947.97;861.37;;;21.10;11.90;;;;;;5016263;28;20419;-69
2022/10/26 11:33:01;;;;;;;603.33;550.90;;;21.20;12.00;;;;;;5015085;28;20463;-69
2022/10/26 11:35:34;;;;;;;890.00;811.20;;;21.30;11.70;;;;;;5014566;28;20406;-69
2022/10/26 11:38:04;;;;;;;751.07;693.63;;;21.30;11.60;;;;;;5014816;28;20453;-69
2022/10/26 11:40:58;;;;;;;722.47;663.90;;;21.20;11.50;;;;;;5014464;28;20414;-69
2022/10/26 11:43:29;;;;;;;659.43;604.57;;;21.30;10.80;;;;;;5016255;28;20445;-69
2022/10/26 11:46:10;;;;;;;769.03;704.90;;;21.20;11.60;;;;;;5014132;28;20407;-68
2022/10/26 11:49:00;;;;;;;883.57;810.83;;;21.30;11.70;;;;;;5014463;28;20473;-69
2022/10/26 11:51:35;;;;;;;795.90;736.57;;;21.20;11.40;;;;;;5012642;28;20517;-69
2022/10/26 11:54:09;;;;;;;728.57;666.60;;;21.20;11.40;;;;;;5014534;28;20450;-69
2022/10/26 11:56:41;;;;;;;925.80;856.83;;;21.40;10.30;;;;;;5014699;28;20469;-69
2022/10/26 11:59:16;;;;;;;868.20;794.93;;;21.50;10.40;;;;;;5014242;28;20492;-69
2022/10/26 12:01:42;;;;;;;974.03;893.57;;;21.50;10.30;;;;;;4991198;28;20443;-68
2022/10/26 12:04:09;;;;;;;938.27;865.77;;;21.50;10.20;;;;;;5002549;28;20426;-68
2022/10/26 12:06:35;;;;;;;882.03;809.77;;;21.50;10.60;;;;;;5010492;28;20665;-69
2022/10/26 12:09:31;;;;;;;791.97;727.83;;;21.60;9.10;;;;;;5010738;28;20431;-68
2022/10/26 12:12:16;;;;;;;817.70;758.10;;;21.50;9.20;;;;;;5009368;28;21038;-69
2022/10/26 12:14:58;;;;;;;916.10;848.77;;;21.50;10.00;;;;;;5010604;28;20422;-67
2022/10/26 12:17:48;;;;;;;783.80;722.53;;;21.50;9.50;;;;;;5010242;28;20425;-68
2022/10/26 12:20:35;;;;;;;886.43;809.30;;;21.50;9.80;;;;;;5009851;28;20419;-68
2022/10/26 12:23:03;;;;;;;719.43;664.60;;;21.50;10.10;;;;;;5010330;28;20932;-68
2022/10/26 12:25:28;;;;;;;897.60;831.43;;;21.60;9.40;;;;;;5008383;28;20423;-69
2022/10/26 12:27:57;;;;;;;887.77;823.57;;;21.70;10.20;;;;;;5010398;28;20437;-69
2022/10/26 12:30:29;;;;;;;861.50;788.53;;;21.60;9.90;;;;;;5009820;28;20191;-69